Time;durP1;ratioP1;P1;durP2;ratioP2;P2;SDS_P1;SDS_P2;PMS_P1;PMS_P2;Temp;Humidity;BMP_temperature;BMP_pressure;BME280_temperature;BME280_humidity;BME280_pressure;Samples;Min_cycle;Max_cycle;Signal;HPM_P1;HPM_P2
2022/07/29 00:01:03;;;;;;;1.17;0.80;;;;;;;15.68;61.15;101059.66;5013361;28;20534;-73
2022/07/29 00:03:30;;;;;;;0.80;0.80;;;;;;;15.63;61.15;101058.16;5005212;28;20291;-73
2022/07/29 00:05:56;;;;;;;1.80;1.00;;;;;;;15.60;61.02;101058.25;5007202;28;20229;-72
2022/07/29 00:08:23;;;;;;;0.77;0.77;;;;;;;15.56;61.32;101051.44;5005323;28;20205;-73
2022/07/29 00:10:50;;;;;;;1.00;0.90;;;;;;;15.53;61.39;101049.75;5005687;28;20696;-73
2022/07/29 00:13:17;;;;;;;1.37;0.77;;;;;;;15.51;61.18;101052.47;5019541;28;20196;-73
2022/07/29 00:15:43;;;;;;;1.00;0.90;;;;;;;15.49;61.45;101061.31;4996264;28;20228;-73
2022/07/29 00:18:11;;;;;;;1.53;0.70;;;;;;;15.47;61.65;101057.91;5017040;23;20239;-69
2022/07/29 00:20:37;;;;;;;1.00;0.90;;;;;;;15.43;62.46;101058.94;5009556;28;20209;-69
2022/07/29 00:23:04;;;;;;;0.87;0.80;;;;;;;15.40;61.88;101066.94;5003628;28;20220;-69
2022/07/29 00:25:30;;;;;;;0.97;0.90;;;;;;;15.39;61.66;101062.59;5015250;28;20204;-69
2022/07/29 00:27:56;;;;;;;1.67;1.00;;;;;;;15.36;61.80;101049.59;5006605;28;20228;-69
2022/07/29 00:30:23;;;;;;;1.63;1.10;;;;;;;15.32;61.55;101044.47;4999584;28;20228;-69
2022/07/29 00:32:50;;;;;;;2.40;1.20;;;;;;;15.32;61.24;101046.25;5008140;28;20200;-69
2022/07/29 00:38:02;;;;;;;3.73;1.10;;;;;;;15.25;61.39;101040.38;4990348;28;20230;-69
2022/07/29 00:40:28;;;;;;;2.07;1.00;;;;;;;15.20;61.45;101036.22;4999166;28;20293;-69
2022/07/29 00:42:55;;;;;;;0.97;0.90;;;;;;;15.18;62.14;101044.16;4998999;28;20224;-69
2022/07/29 00:45:21;;;;;;;2.77;1.00;;;;;;;15.13;61.80;101039.06;5012117;28;20210;-69
2022/07/29 00:47:48;;;;;;;1.37;0.83;;;;;;;15.10;61.99;101041.81;5006032;28;20299;-71
2022/07/29 00:50:15;;;;;;;1.33;0.90;;;;;;;15.07;61.69;101039.28;4998316;28;20774;-71
2022/07/29 00:52:43;;;;;;;4.17;1.10;;;;;;;15.04;61.89;101033.28;4999332;28;20641;-71
2022/07/29 00:55:11;;;;;;;1.40;1.00;;;;;;;15.04;62.60;101036.78;5005212;28;20979;-71
2022/07/29 00:57:38;;;;;;;1.50;1.10;;;;;;;15.01;61.84;101030.81;5002987;28;20231;-71
2022/07/29 01:00:07;;;;;;;1.20;1.00;;;;;;;15.01;62.11;101030.81;5003670;28;20206;-71
2022/07/29 01:02:33;;;;;;;3.40;1.03;;;;;;;14.99;62.09;101032.66;5011858;28;20235;-71
2022/07/29 01:05:00;;;;;;;1.33;1.10;;;;;;;14.95;62.50;101026.63;5006471;28;20207;-71
2022/07/29 01:07:28;;;;;;;2.30;1.20;;;;;;;14.90;62.37;101020.72;5003934;28;20229;-69
2022/07/29 01:09:57;;;;;;;2.10;1.20;;;;;;;14.82;62.89;101015.75;5003667;28;20204;-69
2022/07/29 01:12:26;;;;;;;1.43;1.07;;;;;;;14.78;63.91;101014.16;5006639;28;20209;-69
2022/07/29 01:14:55;;;;;;;2.30;1.10;;;;;;;14.72;63.23;101012.63;5002950;28;20697;-70
2022/07/29 01:17:27;;;;;;;1.43;1.00;;;;;;;14.71;63.29;101000.41;5010678;28;20260;-69
2022/07/29 01:19:58;;;;;;;3.40;1.40;;;;;;;14.68;63.53;100992.63;4999307;28;20718;-69
2022/07/29 01:22:36;;;;;;;1.70;1.20;;;;;;;14.66;63.63;100996.25;5003635;28;20220;-69
2022/07/29 01:25:35;;;;;;;1.70;1.13;;;;;;;14.62;63.46;100987.63;5006074;28;20205;-69
2022/07/29 01:28:18;;;;;;;1.63;1.10;;;;;;;14.62;64.75;100987.63;4997731;28;20224;-69
2022/07/29 01:30:47;;;;;;;2.03;1.00;;;;;;;14.61;63.04;100990.31;5005335;28;20212;-69
2022/07/29 01:33:48;;;;;;;2.03;1.00;;;;;;;14.56;63.38;100980.81;4998842;28;20622;-69
2022/07/29 01:36:11;;;;;;;1.53;1.30;;;;;;;14.53;63.46;100991.41;5009446;28;20743;-69
2022/07/29 01:38:40;;;;;;;3.43;1.53;;;;;;;14.52;63.94;100986.22;5000663;28;20216;-69
2022/07/29 01:41:10;;;;;;;4.70;1.20;;;;;;;14.52;63.72;100978.34;5007332;28;20211;-69
2022/07/29 01:43:40;;;;;;;2.00;1.50;;;;;;;14.48;63.99;100974.97;4996430;28;20747;-71
2022/07/29 01:46:14;;;;;;;4.43;1.20;;;;;;;14.45;64.18;100976.88;4997360;28;20263;-71
2022/07/29 01:48:44;;;;;;;4.13;1.20;;;;;;;14.39;64.54;100970.09;5003255;28;20669;-71
2022/07/29 01:51:21;;;;;;;5.23;1.47;;;;;;;14.34;64.91;100970.25;4994155;28;20209;-71
2022/07/29 01:53:54;;;;;;;1.50;1.07;;;;;;;14.31;65.89;100967.72;5006249;28;20192;-71
2022/07/29 01:56:23;;;;;;;1.60;1.30;;;;;;;14.27;65.59;100967.91;5005040;28;20218;-71
2022/07/29 01:58:52;;;;;;;5.13;1.50;;;;;;;14.24;66.14;100962.75;5008671;28;20197;-71
2022/07/29 02:01:22;;;;;;;2.53;1.20;;;;;;;14.22;66.07;100967.22;5009748;28;20207;-71
2022/07/29 02:03:50;;;;;;;3.87;1.50;;;;;;;14.17;67.61;100970.84;4998525;28;20216;-71
2022/07/29 02:06:19;;;;;;;1.37;1.10;;;;;;;14.17;69.13;100965.59;5002847;28;20307;-71
2022/07/29 02:08:47;;;;;;;2.43;1.23;;;;;;;14.11;67.58;100962.34;5013570;28;20210;-71
2022/07/29 02:11:14;;;;;;;2.23;1.30;;;;;;;14.07;67.66;100955.47;5008207;28;20635;-69
2022/07/29 02:13:41;;;;;;;1.23;1.00;;;;;;;14.03;67.51;100957.34;5009845;28;20201;-69
2022/07/29 02:16:10;;;;;;;2.50;1.50;;;;;;;14.01;67.76;100957.41;5004329;28;20205;-69
2022/07/29 02:18:41;;;;;;;1.53;1.03;;;;;;;13.98;67.76;100952.31;5004420;28;20216;-69
2022/07/29 02:21:08;;;;;;;2.00;1.17;;;;;;;13.98;68.22;100954.03;5011258;28;20303;-69
2022/07/29 02:23:37;;;;;;;3.77;1.30;;;;;;;13.97;68.12;100957.59;5014629;28;20621;-69
2022/07/29 02:26:03;;;;;;;2.30;1.33;;;;;;;13.95;69.28;100951.56;5003380;28;20565;-69
2022/07/29 02:28:31;;;;;;;3.93;1.40;;;;;;;13.96;67.55;100956.72;5004473;28;20220;-69
2022/07/29 02:31:01;;;;;;;2.10;1.40;;;;;;;14.00;67.07;100952.22;5018310;28;20207;-71
2022/07/29 02:33:30;;;;;;;1.10;1.00;;;;;;;13.97;67.02;100958.44;5014900;28;20209;-71
2022/07/29 02:35:59;;;;;;;2.40;1.33;;;;;;;13.97;67.30;100954.97;5011722;28;20207;-71
2022/07/29 02:41:17;;;;;;;1.97;1.10;;;;;;;14.00;67.43;100952.22;5016875;28;20207;-71
2022/07/29 02:43:45;;;;;;;4.23;1.00;;;;;;;13.97;67.32;100945.34;5008023;28;20212;-71
2022/07/29 02:46:17;;;;;;;2.33;1.30;;;;;;;13.99;69.11;100950.53;5002708;28;20219;-71
2022/07/29 02:48:52;;;;;;;2.20;1.27;;;;;;;13.94;68.45;100944.59;4999829;28;20587;-69
2022/07/29 02:51:25;;;;;;;4.17;1.50;;;;;;;13.92;69.24;100944.63;5010262;28;20301;-69
2022/07/29 02:53:55;;;;;;;1.63;1.00;;;;;;;13.96;72.92;100940.97;5006981;28;20197;-68
2022/07/29 02:56:26;;;;;;;2.73;1.30;;;;;;;13.90;71.60;100935.97;5013835;28;20227;-68
2022/07/29 02:58:56;;;;;;;3.73;1.80;;;;;;;13.85;71.61;100945.75;5009110;28;20526;-69
2022/07/29 03:01:24;;;;;;;4.47;1.80;;;;;;;13.86;72.33;100939.63;5007773;28;20212;-69
2022/07/29 03:03:54;;;;;;;1.40;1.30;;;;;;;13.89;74.09;100947.34;5007648;28;20220;-69
2022/07/29 03:06:24;;;;;;;2.40;1.47;;;;;;;13.87;72.04;100946.56;5005183;28;20209;-69
2022/07/29 03:08:52;;;;;;;1.70;1.40;;;;;;;13.98;76.75;100948.78;4999906;28;20577;-69
2022/07/29 03:11:19;;;;;;;2.00;1.30;;;;;;;13.97;75.17;100950.56;5007816;28;20265;-69
2022/07/29 03:13:46;;;;;;;1.70;1.40;;;;;;;13.95;73.64;100957.66;5009375;28;20572;-69
2022/07/29 03:16:14;;;;;;;2.43;1.30;;;;;;;14.16;79.32;100957.81;5009647;28;20204;-69
2022/07/29 03:18:41;;;;;;;3.13;1.30;;;;;;;14.01;73.13;100957.41;4996988;28;20204;-69
2022/07/29 03:21:08;;;;;;;1.27;1.17;;;;;;;13.95;71.07;100960.25;5006992;28;20214;-69
2022/07/29 03:23:36;;;;;;;1.90;1.37;;;;;;;13.90;70.77;100956.94;4996550;28;20209;-69
2022/07/29 03:26:03;;;;;;;0.83;0.83;;;;;;;13.96;74.71;100955.88;5004559;28;20199;-69
2022/07/29 03:28:30;;;;;;;3.80;1.10;;;;;;;13.89;70.59;100957.00;5001980;28;20268;-69
2022/07/29 03:30:56;;;;;;;2.77;1.23;;;;;;;13.86;70.05;100955.34;5004508;28;20208;-69
2022/07/29 03:33:23;;;;;;;2.63;1.20;;;;;;;13.89;70.85;100963.09;5002191;28;20204;-71
2022/07/29 03:35:49;;;;;;;2.73;1.50;;;;;;;13.86;69.35;100957.97;5005794;28;20204;-71
2022/07/29 03:38:15;;;;;;;2.50;1.33;;;;;;;13.89;69.03;100962.22;4999909;28;20228;-71
2022/07/29 03:40:48;;;;;;;1.43;1.17;;;;;;;14.00;74.90;100953.09;5001546;28;20203;-71
2022/07/29 03:43:17;;;;;;;2.60;1.20;;;;;;;13.99;69.09;100955.78;5001412;28;20192;-71
2022/07/29 03:45:46;;;;;;;3.47;1.60;;;;;;;14.08;72.49;100951.97;5010187;28;20212;-71
2022/07/29 03:48:16;;;;;;;2.43;1.40;;;;;;;14.10;70.21;100961.47;5005745;28;20608;-71
2022/07/29 03:50:43;;;;;;;3.03;1.30;;;;;;;14.13;69.47;100960.53;5011472;28;20966;-71
2022/07/29 03:53:10;;;;;;;3.77;1.40;;;;;;;14.21;71.73;100955.84;5014904;28;20201;-71
2022/07/29 03:55:41;;;;;;;2.00;1.47;;;;;;;14.21;69.57;100961.09;4996297;28;20621;-71
2022/07/29 03:58:11;;;;;;;2.17;1.50;;;;;;;14.19;68.77;100960.28;5006745;28;20606;-71
2022/07/29 04:00:39;;;;;;;1.37;1.27;;;;;;;14.16;67.78;100963.91;5005538;28;20222;-69
2022/07/29 04:03:05;;;;;;;1.60;1.17;;;;;;;14.20;70.01;100964.63;5007098;28;20203;-69
2022/07/29 04:05:32;;;;;;;2.27;1.17;;;;;;;14.17;67.44;100976.06;5000802;28;20561;-69
2022/07/29 04:07:58;;;;;;;2.47;1.60;;;;;;;14.19;67.55;100963.78;5003729;28;20232;-69
2022/07/29 04:10:25;;;;;;;6.70;1.40;;;;;;;14.22;67.34;100957.56;5002656;28;20215;-69
2022/07/29 04:12:52;;;;;;;2.73;1.20;;;;;;;14.25;67.30;100964.44;5004483;28;20208;-69
2022/07/29 04:15:20;;;;;;;1.77;1.20;;;;;;;14.25;67.58;100960.09;5002952;28;20207;-69
2022/07/29 04:17:46;;;;;;;1.77;1.20;;;;;;;14.27;67.13;100955.63;4998614;28;20684;-69
2022/07/29 04:20:13;;;;;;;3.27;1.27;;;;;;;14.29;66.28;100955.59;5005534;28;20212;-69
2022/07/29 04:22:39;;;;;;;2.67;1.20;;;;;;;14.36;66.16;100957.06;5006973;28;20206;-69
2022/07/29 04:25:07;;;;;;;6.73;1.50;;;;;;;14.40;66.07;100956.03;5003771;28;20697;-69
2022/07/29 04:27:33;;;;;;;1.37;1.20;;;;;;;14.45;66.45;100961.13;5002453;28;20231;-69
2022/07/29 04:30:00;;;;;;;2.13;1.47;;;;;;;14.44;65.85;100957.66;5004180;28;20207;-69
2022/07/29 04:32:28;;;;;;;2.00;1.53;;;;;;;14.45;65.39;100954.09;5009751;28;20204;-69
2022/07/29 04:34:54;;;;;;;1.83;1.53;;;;;;;14.50;67.67;100951.31;5011876;28;20203;-69
2022/07/29 04:37:21;;;;;;;2.60;1.43;;;;;;;14.51;65.32;100958.25;5002869;28;20235;-69
2022/07/29 04:39:47;;;;;;;2.00;1.23;;;;;;;14.53;65.40;100957.31;4997371;28;20213;-69
2022/07/29 04:42:13;;;;;;;2.37;1.20;;;;;;;14.59;65.85;100969.38;5006080;28;20571;-69
2022/07/29 04:44:40;;;;;;;1.23;1.10;;;;;;;14.61;64.65;100975.41;5009599;28;20693;-69
2022/07/29 04:47:08;;;;;;;1.77;1.10;;;;;;;14.65;64.90;100965.66;5012610;28;20286;-69
2022/07/29 04:49:38;;;;;;;6.17;1.50;;;;;;;14.68;64.86;100969.00;5002477;28;20204;-69
2022/07/29 04:52:05;;;;;;;2.90;1.17;;;;;;;14.71;65.57;100966.28;4999761;28;20209;-69
2022/07/29 04:54:32;;;;;;;2.20;1.27;;;;;;;14.70;64.14;100966.34;5005214;28;20586;-69
2022/07/29 04:56:58;;;;;;;1.90;1.10;;;;;;;14.70;64.19;100964.56;5007197;28;20224;-69
2022/07/29 04:59:26;;;;;;;1.70;1.20;;;;;;;14.72;63.85;100960.13;5002491;28;20213;-69
2022/07/29 05:01:52;;;;;;;1.63;1.20;;;;;;;14.75;63.41;100956.53;5002047;28;20602;-70
2022/07/29 05:04:19;;;;;;;2.50;1.33;;;;;;;14.77;63.55;100957.31;5000086;28;20216;-70
2022/07/29 05:06:47;;;;;;;1.83;1.30;;;;;;;14.80;64.27;100958.97;5002712;28;20239;-70
2022/07/29 05:09:13;;;;;;;1.97;1.33;;;;;;;14.83;64.04;100943.97;5001757;28;20542;-70
2022/07/29 05:11:39;;;;;;;2.07;1.13;;;;;;;14.89;64.65;100943.72;4999559;28;20209;-70
2022/07/29 05:14:06;;;;;;;1.93;1.23;;;;;;;14.85;63.10;100944.75;5000594;28;20202;-70
2022/07/29 05:16:33;;;;;;;2.17;1.27;;;;;;;14.92;63.02;100951.47;4998422;28;20286;-70
2022/07/29 05:18:59;;;;;;;3.33;1.20;;;;;;;14.98;63.16;100955.63;4998899;28;20203;-70
2022/07/29 05:21:25;;;;;;;2.93;1.40;;;;;;;15.05;63.05;100953.63;5004299;28;20213;-70
2022/07/29 05:23:53;;;;;;;1.90;1.30;;;;;;;15.11;62.61;100953.38;5005526;28;20216;-70
2022/07/29 05:26:20;;;;;;;1.63;1.10;;;;;;;15.15;62.43;100952.34;4999484;28;20223;-70
2022/07/29 05:28:46;;;;;;;1.33;1.00;;;;;;;15.22;62.52;100945.91;5010771;28;20213;-70
2022/07/29 05:31:14;;;;;;;2.03;1.23;;;;;;;15.34;62.81;100957.72;5004925;28;20210;-69
2022/07/29 05:33:40;;;;;;;2.57;1.30;;;;;;;15.42;61.64;100954.75;5009478;28;20535;-70
2022/07/29 05:36:07;;;;;;;4.30;1.40;;;;;;;15.47;61.77;100964.16;5002178;28;20203;-70
2022/07/29 05:38:33;;;;;;;1.90;1.50;;;;;;;15.57;61.36;100969.06;5013611;28;20668;-70
2022/07/29 05:41:01;;;;;;;2.13;1.30;;;;;;;15.66;61.28;100966.03;5007071;28;20204;-69
2022/07/29 05:43:29;;;;;;;3.73;1.47;;;;;;;15.80;60.84;100960.22;4996132;28;20216;-70
2022/07/29 05:45:56;;;;;;;2.50;1.13;;;;;;;15.85;60.56;100955.63;5010395;28;20217;-70
2022/07/29 05:48:23;;;;;;;2.93;1.57;;;;;;;15.98;60.57;100958.59;5024741;28;20279;-70
2022/07/29 05:50:49;;;;;;;2.70;1.23;;;;;;;16.00;59.92;100968.09;5012151;28;20752;-69
2022/07/29 05:53:16;;;;;;;2.57;1.40;;;;;;;16.09;60.03;100967.72;5016149;28;20215;-70
2022/07/29 05:55:42;;;;;;;1.87;1.30;;;;;;;16.17;60.04;100969.16;5012211;28;20211;-70
2022/07/29 05:58:10;;;;;;;4.67;1.67;;;;;;;16.16;58.93;100963.03;5004356;28;20950;-70
2022/07/29 06:00:36;;;;;;;1.77;1.30;;;;;;;16.20;59.01;100966.38;5008113;28;20203;-70
2022/07/29 06:03:03;;;;;;;2.07;1.57;;;;;;;16.28;58.79;100973.00;5004627;28;20208;-70
2022/07/29 06:05:29;;;;;;;1.70;1.27;;;;;;;16.38;60.03;100962.94;5019992;28;20227;-69
2022/07/29 06:07:56;;;;;;;2.73;1.30;;;;;;;16.46;59.32;100960.81;4998089;28;20229;-70
2022/07/29 06:10:22;;;;;;;4.53;1.33;;;;;;;16.56;58.61;100966.50;5013727;28;20211;-70
2022/07/29 06:12:48;;;;;;;2.30;1.40;;;;;;;16.64;59.19;100971.44;5002729;28;20320;-69
2022/07/29 06:15:16;;;;;;;2.33;1.40;;;;;;;16.72;58.32;100973.69;5007232;28;20205;-70
2022/07/29 06:17:43;;;;;;;2.20;1.50;;;;;;;16.78;57.73;100974.28;5006248;28;20332;-70
2022/07/29 06:20:11;;;;;;;2.57;1.30;;;;;;;16.94;58.42;100965.66;5003827;28;20212;-70
2022/07/29 06:22:37;;;;;;;2.57;1.10;;;;;;;17.05;57.44;100971.28;5010164;28;20200;-70
2022/07/29 06:25:04;;;;;;;1.87;1.37;;;;;;;17.14;56.77;100973.47;5018068;28;20216;-70
2022/07/29 06:27:30;;;;;;;3.20;1.47;;;;;;;17.27;56.80;100976.38;5006685;28;20229;-70
2022/07/29 06:29:57;;;;;;;1.40;1.30;;;;;;;17.36;56.11;100981.22;5017895;28;20196;-70
2022/07/29 06:32:25;;;;;;;2.50;1.30;;;;;;;17.50;56.19;100974.38;5020435;28;20574;-70
2022/07/29 06:34:51;;;;;;;2.17;1.30;;;;;;;17.67;55.63;100984.94;5012757;28;20197;-70
2022/07/29 06:37:18;;;;;;;3.10;1.60;;;;;;;17.62;55.21;100983.47;5009523;28;20216;-70
2022/07/29 06:39:44;;;;;;;1.63;1.10;;;;;;;17.73;55.48;100981.16;5010034;28;20197;-70
2022/07/29 06:42:11;;;;;;;2.87;1.60;;;;;;;17.72;54.51;100982.94;5008501;28;20208;-70
2022/07/29 06:44:37;;;;;;;1.97;1.30;;;;;;;17.63;54.53;100977.28;5005072;28;20221;-70
2022/07/29 06:47:04;;;;;;;1.67;1.03;;;;;;;17.81;54.81;100984.25;5013575;28;20769;-70
2022/07/29 06:49:31;;;;;;;1.70;1.40;;;;;;;17.96;54.08;100991.44;5005115;28;20534;-70
2022/07/29 06:51:58;;;;;;;3.97;1.23;;;;;;;17.95;54.24;100980.94;5004050;28;20663;-70
2022/07/29 06:54:24;;;;;;;1.23;1.13;;;;;;;18.02;54.19;100992.06;5013555;28;21006;-70
2022/07/29 06:56:50;;;;;;;2.80;1.53;;;;;;;18.00;53.50;100991.28;5011837;28;20234;-70
2022/07/29 06:59:17;;;;;;;1.47;1.17;;;;;;;18.09;54.42;100993.44;5011701;28;20215;-70
2022/07/29 07:01:44;;;;;;;1.93;1.00;;;;;;;18.17;53.92;100980.72;5010549;28;20228;-70
2022/07/29 07:04:11;;;;;;;2.23;1.03;;;;;;;18.21;53.63;100991.97;5006037;28;20707;-70
2022/07/29 07:06:39;;;;;;;6.20;1.40;;;;;;;18.29;53.32;100987.09;5003396;28;20224;-70
2022/07/29 07:09:06;;;;;;;1.73;1.23;;;;;;;18.34;53.54;100988.56;5009233;28;20673;-70
2022/07/29 07:11:32;;;;;;;1.63;1.10;;;;;;;18.43;53.88;100992.50;5017070;28;20205;-70
2022/07/29 07:13:59;;;;;;;2.90;1.30;;;;;;;18.40;52.91;100992.69;5001619;28;20216;-70
2022/07/29 07:16:25;;;;;;;2.97;1.30;;;;;;;18.48;53.36;100993.13;5005813;28;20227;-70
2022/07/29 07:18:51;;;;;;;1.27;1.17;;;;;;;18.63;53.60;100988.81;4999222;28;20207;-70
2022/07/29 07:21:18;;;;;;;1.47;1.10;;;;;;;18.71;52.98;100991.91;5011955;28;20211;-70
2022/07/29 07:23:46;;;;;;;4.70;1.53;;;;;;;18.79;52.20;100990.63;5014408;28;20208;-70
2022/07/29 07:26:12;;;;;;;2.93;1.40;;;;;;;18.83;52.10;100994.81;5014729;28;20243;-70
2022/07/29 07:28:38;;;;;;;1.40;1.13;;;;;;;18.84;52.36;100992.09;5016234;28;20677;-70
2022/07/29 07:31:05;;;;;;;1.30;1.10;;;;;;;18.95;51.98;100993.31;5003805;28;20196;-70
2022/07/29 07:33:31;;;;;;;3.20;1.27;;;;;;;19.04;52.48;100980.41;5004107;28;20211;-70
2022/07/29 07:35:57;;;;;;;2.60;1.50;;;;;;;19.10;52.09;100990.66;5008269;28;20201;-70
2022/07/29 07:38:24;;;;;;;2.17;1.50;;;;;;;19.26;51.70;100995.06;5006396;28;20224;-70
2022/07/29 07:40:51;;;;;;;3.97;1.60;;;;;;;19.36;51.38;100998.88;5011877;28;20201;-70
2022/07/29 07:43:18;;;;;;;2.40;1.30;;;;;;;19.36;51.43;101003.34;5001976;28;20196;-70
2022/07/29 07:45:44;;;;;;;1.80;1.40;;;;;;;19.43;51.32;101000.22;5008879;28;20693;-70
2022/07/29 07:48:10;;;;;;;1.80;1.20;;;;;;;19.54;51.23;100988.19;5006531;28;20701;-70
2022/07/29 07:50:37;;;;;;;2.03;1.30;;;;;;;19.62;51.01;100997.38;5007596;28;20279;-70
2022/07/29 07:53:03;;;;;;;2.10;1.33;;;;;;;19.60;50.95;100987.84;5004354;28;20208;-70
2022/07/29 07:55:30;;;;;;;3.13;1.57;;;;;;;19.63;51.13;100995.59;5006560;28;20276;-70
2022/07/29 07:57:58;;;;;;;5.50;1.90;;;;;;;19.70;50.54;100996.09;5006045;28;20224;-70
2022/07/29 08:00:24;;;;;;;1.83;1.20;;;;;;;19.82;50.11;100990.97;5010697;28;20355;-70
2022/07/29 08:02:51;;;;;;;1.73;1.33;;;;;;;19.88;50.72;100991.56;5020965;28;20295;-70
2022/07/29 08:05:17;;;;;;;3.20;1.37;;;;;;;20.03;50.51;100990.63;4999530;28;20212;-70
2022/07/29 08:07:45;;;;;;;2.17;1.67;;;;;;;20.09;49.97;100990.25;4987582;28;20232;-70
2022/07/29 08:10:12;;;;;;;1.73;1.10;;;;;;;20.20;49.93;100984.31;5007796;28;20197;-70
2022/07/29 08:12:38;;;;;;;4.33;1.50;;;;;;;20.24;50.14;100988.47;5005367;28;20206;-70
2022/07/29 08:15:08;;;;;;;1.53;1.30;;;;;;;20.24;49.52;100992.00;5007831;28;20306;-70
2022/07/29 08:17:35;;;;;;;2.17;1.57;;;;;;;20.28;49.91;100987.34;5006254;28;20232;-70
2022/07/29 08:20:01;;;;;;;1.30;1.20;;;;;;;20.34;50.19;100991.41;5006767;28;20228;-70
2022/07/29 08:22:27;;;;;;;1.60;1.20;;;;;;;20.41;49.52;100982.16;5009998;28;20227;-70
2022/07/29 08:24:55;;;;;;;2.03;1.13;;;;;;;20.43;49.66;100991.69;5012678;28;20224;-70
2022/07/29 08:27:22;;;;;;;6.13;1.80;;;;;;;20.56;49.89;100989.16;5001834;28;20238;-70
2022/07/29 08:29:48;;;;;;;4.53;1.53;;;;;;;20.67;50.10;100996.47;5014512;28;20605;-70
2022/07/29 08:32:16;;;;;;;2.70;1.30;;;;;;;20.77;49.33;100994.06;5007893;28;20196;-70
2022/07/29 08:34:45;;;;;;;1.87;1.40;;;;;;;20.95;49.60;100990.25;4999765;28;20569;-70
2022/07/29 08:37:12;;;;;;;3.30;1.40;;;;;;;21.09;49.49;100992.03;5011318;28;20220;-70
2022/07/29 08:39:38;;;;;;;2.47;1.50;;;;;;;21.20;49.70;100990.47;5007250;28;20204;-70
2022/07/29 08:42:06;;;;;;;3.67;1.33;;;;;;;21.37;49.21;100992.84;5008919;28;20200;-70
2022/07/29 08:44:34;;;;;;;2.67;1.53;;;;;;;21.35;47.71;100990.34;5011809;28;20200;-70
2022/07/29 08:47:01;;;;;;;3.03;1.70;;;;;;;21.17;48.09;100984.41;5009715;28;20230;-70
2022/07/29 08:49:28;;;;;;;1.50;1.10;;;;;;;21.33;49.48;100986.06;5005043;28;20200;-70
2022/07/29 08:51:57;;;;;;;4.63;1.50;;;;;;;21.43;48.53;100988.97;5000238;28;20224;-70
2022/07/29 08:54:24;;;;;;;2.10;1.50;;;;;;;21.48;48.72;100990.41;5008157;28;20200;-70
2022/07/29 08:56:52;;;;;;;2.80;1.60;;;;;;;21.47;48.18;100986.03;5004734;28;20235;-70
2022/07/29 08:59:21;;;;;;;2.73;1.47;;;;;;;21.62;49.12;100980.66;5015075;28;20209;-70
2022/07/29 09:01:49;;;;;;;4.87;1.50;;;;;;;21.70;48.24;100991.59;5007339;28;20738;-70
2022/07/29 09:04:16;;;;;;;5.40;1.60;;;;;;;21.72;47.90;100981.72;5004318;28;20682;-70
2022/07/29 09:06:48;;;;;;;1.67;1.30;;;;;;;21.70;48.25;100984.47;5003059;28;20233;-70
2022/07/29 09:09:15;;;;;;;2.17;1.27;;;;;;;21.58;48.46;100976.50;4998260;28;20205;-70
2022/07/29 09:11:42;;;;;;;2.57;1.67;;;;;;;21.50;48.33;100972.56;4995357;28;20216;-70
2022/07/29 09:14:08;;;;;;;2.80;1.50;;;;;;;21.57;48.66;100973.00;5002913;28;20200;-70
2022/07/29 09:16:59;;;;;;;1.90;1.33;;;;;;;21.85;48.44;100966.69;5009046;28;20220;-70
2022/07/29 09:19:30;;;;;;;1.80;1.50;;;;;;;21.96;48.17;100970.41;4980434;28;20224;-70
2022/07/29 09:22:00;;;;;;;2.47;1.80;;;;;;;22.04;48.09;100968.94;5012780;28;20215;-70
2022/07/29 09:24:39;;;;;;;1.40;1.30;;;;;;;22.32;48.29;100961.72;5017311;28;20223;-70
2022/07/29 09:27:10;;;;;;;1.73;1.40;;;;;;;22.50;47.28;100962.25;5009149;28;20793;-70
2022/07/29 09:29:37;;;;;;;1.52;1.42;;;;;;;22.65;47.30;100960.28;5008227;28;20204;-70
2022/07/29 09:32:07;;;;;;;1.85;1.35;;;;;;;22.67;47.70;100959.22;5005959;28;20831;-70
2022/07/29 09:34:33;;;;;;;2.25;1.77;;;;;;;22.73;47.00;100970.38;5005885;28;20678;-71
2022/07/29 09:37:01;;;;;;;1.88;1.48;;;;;;;22.71;47.64;100956.34;5012138;28;20683;-70
2022/07/29 09:39:30;;;;;;;2.42;1.55;;;;;;;22.95;47.45;100957.22;5002754;28;20607;-70
2022/07/29 09:41:57;;;;;;;1.73;1.60;;;;;;;23.15;47.48;100953.13;5001025;28;20753;-70
2022/07/29 09:44:24;;;;;;;2.22;1.75;;;;;;;23.35;47.17;100951.63;5002561;28;20624;-71
2022/07/29 09:46:59;;;;;;;3.75;1.70;;;;;;;23.31;47.18;100947.53;5017155;28;20231;-70
2022/07/29 09:49:26;;;;;;;3.88;1.60;;;;;;;23.40;47.15;100940.66;5005985;28;20548;-70
2022/07/29 09:52:05;;;;;;;2.67;1.67;;;;;;;23.44;46.74;100939.47;4999955;28;20204;-70
2022/07/29 09:54:36;;;;;;;3.03;1.80;;;;;;;23.45;47.08;100949.16;5006040;28;20207;-70
2022/07/29 09:57:04;;;;;;;1.73;1.60;;;;;;;23.55;47.38;100949.28;5009652;28;20464;-70
2022/07/29 09:59:30;;;;;;;1.58;1.48;;;;;;;23.50;45.94;100941.66;5013111;28;20294;-70
2022/07/29 10:01:57;;;;;;;4.50;1.60;;;;;;;23.69;46.45;100945.56;5006283;28;20207;-70
2022/07/29 10:04:24;;;;;;;2.38;1.50;;;;;;;23.58;45.75;100941.91;5000217;28;20220;-70
2022/07/29 10:06:57;;;;;;;1.90;1.38;;;;;;;23.66;46.34;100944.00;5013056;28;20227;-70
2022/07/29 10:09:26;;;;;;;2.53;1.70;;;;;;;23.73;44.96;100942.56;5010050;28;20593;-70
2022/07/29 10:12:10;;;;;;;3.00;1.38;;;;;;;23.83;45.38;100942.72;5011090;28;20192;-70
2022/07/29 10:14:38;;;;;;;1.58;1.23;;;;;;;24.06;44.97;100938.28;5010802;28;20208;-70
2022/07/29 10:17:06;;;;;;;4.15;1.63;;;;;;;24.22;45.00;100953.06;5011904;28;20231;-70
2022/07/29 10:19:34;;;;;;;2.38;1.48;;;;;;;24.15;44.37;100950.03;5002296;28;20279;-70
2022/07/29 10:22:03;;;;;;;1.70;1.48;;;;;;;24.30;44.38;100946.16;5003287;28;20200;-70
2022/07/29 10:24:33;;;;;;;2.10;1.60;;;;;;;24.49;44.29;100945.56;5012732;28;20200;-70
2022/07/29 10:27:01;;;;;;;4.03;1.55;;;;;;;24.69;43.40;100946.63;5007848;28;20228;-70
2022/07/29 10:29:28;;;;;;;1.65;1.30;;;;;;;24.91;43.30;100939.59;5005381;28;20677;-71
2022/07/29 10:32:10;;;;;;;2.58;1.65;;;;;;;24.86;42.99;100952.44;5009669;28;20272;-71
2022/07/29 10:34:54;;;;;;;2.38;1.52;;;;;;;24.77;43.06;100940.69;5017540;28;20219;-70
2022/07/29 10:37:28;;;;;;;2.45;1.50;;;;;;;24.87;43.27;100936.31;5018533;28;20231;-70
2022/07/29 10:41:25;;;;;;;2.97;1.50;;;;;;;24.81;43.04;100936.81;5010283;28;20187;-70
2022/07/29 10:42:53;;;;;;;1.80;1.23;;;;;;;25.10;43.31;100934.44;5013749;28;20200;-70
2022/07/29 10:45:20;;;;;;;2.65;1.60;;;;;;;25.27;43.11;100945.53;5006002;28;20212;-70
2022/07/29 10:47:46;;;;;;;2.75;1.60;;;;;;;25.12;42.67;100939.63;5008802;28;20224;-70
2022/07/29 10:50:13;;;;;;;2.38;1.63;;;;;;;25.17;42.55;100936.56;5013633;28;20205;-70
2022/07/29 10:52:57;;;;;;;2.42;1.60;;;;;;;25.21;42.71;100933.53;5013860;28;20235;-71
2022/07/29 10:55:36;;;;;;;2.72;1.42;;;;;;;25.05;43.10;100923.28;5003193;28;20558;-70
2022/07/29 10:58:16;;;;;;;2.42;1.70;;;;;;;25.12;42.87;100931.63;5006151;28;20231;-71
2022/07/29 11:00:43;;;;;;;2.15;1.70;;;;;;;24.95;43.29;100930.34;5016859;28;20214;-70
2022/07/29 11:03:09;;;;;;;2.00;1.50;;;;;;;24.94;43.33;100921.50;5017056;28;20286;-70
2022/07/29 11:05:56;;;;;;;1.67;1.50;;;;;;;25.06;43.88;100930.28;5001276;28;20224;-71
2022/07/29 11:08:26;;;;;;;2.42;1.70;;;;;;;25.22;43.50;100929.03;5005538;28;20227;-70
2022/07/29 11:11:36;;;;;;;1.75;1.48;;;;;;;25.32;42.54;100916.66;5010693;28;20666;-70
2022/07/29 11:14:04;;;;;;;5.45;1.67;;;;;;;25.41;42.48;100915.03;5011881;28;20197;-70
2022/07/29 11:17:04;;;;;;;3.13;1.88;;;;;;;25.48;42.40;100913.53;5016560;28;20231;-71
2022/07/29 11:19:31;;;;;;;4.63;1.65;;;;;;;25.61;41.65;100916.00;5016073;28;20204;-70
2022/07/29 11:21:58;;;;;;;2.05;1.33;;;;;;;25.98;41.34;100926.22;5002407;28;20193;-70
2022/07/29 11:24:27;;;;;;;1.77;1.38;;;;;;;26.14;40.28;100910.56;5010906;28;20207;-70
2022/07/29 11:27:14;;;;;;;1.80;1.50;;;;;;;26.18;40.85;100911.16;5006905;28;20237;-70
2022/07/29 11:29:50;;;;;;;2.10;1.40;;;;;;;26.58;40.33;100916.47;5006677;28;20254;-70
2022/07/29 11:32:19;;;;;;;1.92;1.38;;;;;;;26.78;39.78;100920.03;4996396;28;20251;-70
2022/07/29 11:34:47;;;;;;;1.83;1.50;;;;;;;26.88;38.10;100920.06;5009828;28;20213;-70
2022/07/29 11:37:24;;;;;;;1.85;1.45;;;;;;;26.96;38.48;100919.38;5006614;28;20217;-70